x

Barcelona Harbor, Ny (barn6) Weather Station

7:48pm - Mon 22nd Sep 2014 All times are CDT. -5 hours from GMT.

  • Wind
    17mph, 26mph gusts
  • Air Temp 57°f
  • Sea Pressure 1023.4mb
  • Barcelona Harbor, Ny
  • Barcelona Harbor, Ny

More Historic Weather Station data

Upgrade to MSW Pro to gain access to the past 30 days of data for over 8000 Wavebouys and Weather Stations around the globe.

Join Pro

Comparision Forecast

View Surf forecast
   
Mon 09/22 7:48pm 17 26 mph 1023.4mb 57f
5:43pm 22 26 mph 1021.7mb 58f
4:42pm 18 25 mph 1021mb 57f
3:41pm 9 23 mph 1021mb 57f
Sat 09/20 12:20pm 15 28 mph 1015.6mb 74f
12:00pm 14 28 mph 1015.9mb 74f
11:50am 13 24 mph 1016.3mb 74f
11:40am 14 22 mph 1016.3mb 74f
11:30am 13 18 mph 1016.3mb 74f
11:20am 14 20 mph 1016.6mb 73f
11:10am 15 21 mph 1016.9mb 73f
11:00am 13 18 mph 1016.9mb 73f
10:50am 13 22 mph 1017.3mb 73f
10:40am 10 21 mph 1017.3mb 72f
10:30am 11 17 mph 1017.6mb 72f
10:20am 10 23 mph 1017.6mb 71f
10:10am 11 21 mph 1017.6mb 71f
10:00am 11 20 mph 1017.9mb 71f
9:50am 14 22 mph 1017.9mb 71f
9:40am 16 24 mph 1017.9mb 70f
9:30am 15 22 mph 1017.9mb 70f
9:20am 13 22 mph 1017.9mb 69f
9:10am 14 18 mph 1017.9mb 69f
1:50am 10 23 mph 1018.6mb 64f
Fri 09/19 8:06pm  -  7 mph 1020.7mb 60f
7:00pm 2 5 mph 1021mb 59f
6:50pm 3 5 mph 1021mb 60f
6:40pm 2 3 mph 1021.3mb 61f
6:30pm 2 5 mph 1021.3mb 62f
6:20pm 3 5 mph 1021.3mb 62f
6:10pm 2 5 mph 1021.3mb 61f
6:00pm 3 7 mph 1021.3mb 62f
5:50pm 6 8 mph 1021.7mb 63f
5:40pm 8 10 mph 1022mb 63f
5:30pm 9 10 mph 1022mb 63f
5:20pm 9 11 mph 1022.4mb 63f
5:10pm 10 13 mph 1022mb 63f